Time;durP1;ratioP1;P1;durP2;ratioP2;P2;SDS_P1;SDS_P2;PMS_P1;PMS_P2;Temp;Humidity;BMP_temperature;BMP_pressure;BME280_temperature;BME280_humidity;BME280_pressure;Samples;Min_cycle;Max_cycle;Signal;HPM_P1;HPM_P2
2020/12/01 00:01:45;;;;;;;28.10;3.30;;;;;;;;;;4377855;32;20206;-84
2020/12/01 00:04:10;;;;;;;28.40;3.13;;;;;;;;;;4377176;32;20631;-84
2020/12/01 00:06:36;;;;;;;21.63;3.17;;;;;;;;;;4363258;32;20228;-83
2020/12/01 00:09:01;;;;;;;26.27;3.17;;;;;;;;;;4363022;32;20586;-82
2020/12/01 00:11:26;;;;;;;33.00;3.70;;;;;;;;;;4363837;32;20595;-81
2020/12/01 00:13:52;;;;;;;20.13;2.70;;;;;;;;;;4363364;32;20236;-82
2020/12/01 00:16:17;;;;;;;19.03;2.63;;;;;;;;;;4363973;32;20189;-81
2020/12/01 00:18:42;;;;;;;20.50;3.30;;;;;;;;;;4377451;32;20577;-83
2020/12/01 00:21:12;;;;;;;12.93;2.70;;;;;;;;;;4363172;32;20198;-82
2020/12/01 00:23:37;;;;;;;20.90;2.97;;;;;;;;;;4362970;32;20171;-83
2020/12/01 00:26:03;;;;;;;21.23;2.70;;;;;;;;;;4362712;32;20209;-83
2020/12/01 00:28:28;;;;;;;17.20;2.37;;;;;;;;;;4363248;32;20166;-83
2020/12/01 00:30:53;;;;;;;21.90;2.40;;;;;;;;;;4363208;32;20163;-83
2020/12/01 00:33:18;;;;;;;20.77;2.90;;;;;;;;;;4363580;32;20197;-84
2020/12/01 00:35:44;;;;;;;22.23;2.97;;;;;;;;;;4362741;32;20608;-84
2020/12/01 00:38:09;;;;;;;20.97;2.90;;;;;;;;;;4376658;32;20529;-84
2020/12/01 00:40:34;;;;;;;20.98;2.53;;;;;;;;;;4362952;32;20197;-84
2020/12/01 00:42:59;;;;;;;25.23;2.87;;;;;;;;;;4363565;32;20166;-86
2020/12/01 00:45:24;;;;;;;22.67;2.50;;;;;;;;;;4362414;32;20250;-85
2020/12/01 00:47:50;;;;;;;20.77;2.53;;;;;;;;;;4362578;32;20188;-85
2020/12/01 00:50:19;;;;;;;26.30;2.73;;;;;;;;;;4362440;32;20217;-85
2020/12/01 00:52:44;;;;;;;16.53;3.20;;;;;;;;;;4362337;32;20170;-86
2020/12/01 00:55:11;;;;;;;21.13;2.50;;;;;;;;;;4363458;32;20166;-85
2020/12/01 00:57:37;;;;;;;20.07;2.70;;;;;;;;;;4362800;32;20264;-84
2020/12/01 01:00:07;;;;;;;15.60;2.37;;;;;;;;;;4362244;32;20529;-85
2020/12/01 01:02:32;;;;;;;23.05;2.65;;;;;;;;;;4362472;32;20477;-84
2020/12/01 01:04:57;;;;;;;18.55;2.40;;;;;;;;;;4362251;32;20158;-85
2020/12/01 01:07:23;;;;;;;20.40;2.58;;;;;;;;;;4362591;32;20480;-84
2020/12/01 01:09:48;;;;;;;15.07;2.30;;;;;;;;;;4362510;32;20163;-84
2020/12/01 01:12:13;;;;;;;20.83;2.67;;;;;;;;;;4362078;32;20265;-84
2020/12/01 01:14:39;;;;;;;8.33;1.67;;;;;;;;;;4375843;32;20569;-84
2020/12/01 01:17:04;;;;;;;14.07;2.05;;;;;;;;;;4361982;32;20185;-83
2020/12/01 01:19:29;;;;;;;8.98;1.87;;;;;;;;;;4362805;32;20163;-83
2020/12/01 01:21:54;;;;;;;18.53;2.40;;;;;;;;;;4376036;32;20162;-83
2020/12/01 01:24:20;;;;;;;16.10;2.40;;;;;;;;;;4362266;32;20186;-83
2020/12/01 01:26:46;;;;;;;10.52;2.00;;;;;;;;;;4376420;32;20182;-84
2020/12/01 01:29:13;;;;;;;18.93;2.40;;;;;;;;;;4362104;32;20521;-84
2020/12/01 01:31:38;;;;;;;14.57;2.00;;;;;;;;;;4361806;32;20162;-84
2020/12/01 01:34:03;;;;;;;15.47;2.27;;;;;;;;;;4361898;32;20166;-84
2020/12/01 01:36:32;;;;;;;20.30;2.87;;;;;;;;;;4361730;32;20217;-84
2020/12/01 01:38:57;;;;;;;12.63;2.05;;;;;;;;;;4361652;32;20690;-84
2020/12/01 01:41:22;;;;;;;17.73;2.07;;;;;;;;;;4361807;32;20170;-84
2020/12/01 01:43:47;;;;;;;12.50;2.27;;;;;;;;;;4361862;32;20167;-85
2020/12/01 01:46:34;;;;;;;13.10;2.73;;;;;;;;;;4362358;32;20213;-84
2020/12/01 01:49:00;;;;;;;8.93;1.73;;;;;;;;;;4375921;32;20196;-84
2020/12/01 01:51:25;;;;;;;13.05;1.67;;;;;;;;;;4376038;32;20574;-84
2020/12/01 01:53:51;;;;;;;9.60;1.73;;;;;;;;;;4362161;32;20625;-84
2020/12/01 01:56:19;;;;;;;10.37;1.60;;;;;;;;;;4361821;32;20190;-84
2020/12/01 01:58:45;;;;;;;12.48;1.80;;;;;;;;;;4361789;32;20175;-84
2020/12/01 02:01:12;;;;;;;7.53;1.50;;;;;;;;;;4361433;32;20170;-84
2020/12/01 02:03:40;;;;;;;7.63;1.40;;;;;;;;;;4361233;32;20193;-84
2020/12/01 02:06:13;;;;;;;15.30;1.67;;;;;;;;;;4361985;32;20190;-83
2020/12/01 02:08:40;;;;;;;13.00;1.90;;;;;;;;;;4376052;32;20166;-83
2020/12/01 02:11:05;;;;;;;7.45;1.40;;;;;;;;;;4361624;32;20587;-83
2020/12/01 02:13:51;;;;;;;12.70;1.58;;;;;;;;;;4374905;32;20166;-84
2020/12/01 02:16:16;;;;;;;9.43;1.40;;;;;;;;;;4353134;32;20197;-84
2020/12/01 02:18:42;;;;;;;10.40;1.57;;;;;;;;;;4361371;32;20226;-83
2020/12/01 02:21:28;;;;;;;14.32;1.50;;;;;;;;;;4361662;32;20174;-84
2020/12/01 02:23:53;;;;;;;17.13;2.17;;;;;;;;;;4361836;32;20305;-84
2020/12/01 02:26:22;;;;;;;10.57;1.80;;;;;;;;;;4361618;32;20189;-84
2020/12/01 02:28:47;;;;;;;8.90;1.43;;;;;;;;;;4361852;32;20179;-85
2020/12/01 02:31:13;;;;;;;15.53;1.80;;;;;;;;;;4361257;32;20214;-84
2020/12/01 02:33:38;;;;;;;8.33;1.40;;;;;;;;;;4361398;32;20193;-84
2020/12/01 02:36:04;;;;;;;11.97;1.53;;;;;;;;;;4362044;32;20192;-84
2020/12/01 02:38:29;;;;;;;14.37;1.90;;;;;;;;;;4361399;32;20171;-84
2020/12/01 02:40:54;;;;;;;15.47;1.87;;;;;;;;;;4361393;32;20185;-83
2020/12/01 02:43:19;;;;;;;10.82;1.95;;;;;;;;;;4361224;32;20182;-82
2020/12/01 02:45:46;;;;;;;12.55;2.12;;;;;;;;;;4361453;32;20224;-83
2020/12/01 02:48:11;;;;;;;9.43;1.70;;;;;;;;;;4361878;32;20576;-83
2020/12/01 02:50:36;;;;;;;15.57;2.00;;;;;;;;;;4376381;32;20244;-84
2020/12/01 02:53:02;;;;;;;14.47;1.73;;;;;;;;;;4375727;32;20544;-84
2020/12/01 02:55:27;;;;;;;16.13;1.73;;;;;;;;;;4350485;32;20213;-84
2020/12/01 02:57:52;;;;;;;15.35;1.60;;;;;;;;;;4361023;32;20174;-85
2020/12/01 03:00:17;;;;;;;10.07;1.70;;;;;;;;;;4361397;32;20171;-84
2020/12/01 03:02:43;;;;;;;11.85;1.65;;;;;;;;;;4362268;32;20159;-84
2020/12/01 03:05:08;;;;;;;11.30;1.62;;;;;;;;;;4375343;32;20155;-83
2020/12/01 03:07:33;;;;;;;8.35;1.55;;;;;;;;;;4360965;32;20558;-84
2020/12/01 03:09:58;;;;;;;10.70;1.43;;;;;;;;;;4361106;32;20280;-84
2020/12/01 03:12:23;;;;;;;11.07;1.40;;;;;;;;;;4363054;32;20170;-84
2020/12/01 03:14:49;;;;;;;13.33;1.47;;;;;;;;;;4363770;32;20189;-84
2020/12/01 03:17:14;;;;;;;7.70;1.30;;;;;;;;;;4363887;32;20193;-84
2020/12/01 03:19:39;;;;;;;10.10;1.60;;;;;;;;;;4363930;32;20197;-85
2020/12/01 03:22:05;;;;;;;10.77;1.40;;;;;;;;;;4364514;32;20179;-84
2020/12/01 03:24:30;;;;;;;10.27;1.50;;;;;;;;;;4365152;32;20170;-83
2020/12/01 03:26:55;;;;;;;13.23;1.65;;;;;;;;;;4366367;32;20205;-83
2020/12/01 03:29:20;;;;;;;13.10;1.57;;;;;;;;;;4366319;32;20170;-83
2020/12/01 03:31:46;;;;;;;11.83;2.00;;;;;;;;;;4364629;32;20507;-84
2020/12/01 03:34:11;;;;;;;9.90;1.20;;;;;;;;;;4378301;32;20139;-83
2020/12/01 03:36:36;;;;;;;11.23;1.83;;;;;;;;;;4363727;32;20249;-83
2020/12/01 03:39:02;;;;;;;12.07;1.42;;;;;;;;;;4365309;32;20228;-83
2020/12/01 03:41:27;;;;;;;20.90;2.03;;;;;;;;;;4367435;32;20175;-83
2020/12/01 03:43:52;;;;;;;12.53;1.70;;;;;;;;;;4367493;32;20219;-83
2020/12/01 03:46:18;;;;;;;9.93;1.53;;;;;;;;;;4377660;32;20140;-83
2020/12/01 03:48:43;;;;;;;9.30;1.60;;;;;;;;;;4363568;32;20213;-85
2020/12/01 03:51:09;;;;;;;10.17;1.57;;;;;;;;;;4363983;32;20170;-83
2020/12/01 03:53:34;;;;;;;13.33;1.60;;;;;;;;;;4376830;32;20143;-83
2020/12/01 03:55:59;;;;;;;11.30;1.30;;;;;;;;;;4377374;32;20147;-83
2020/12/01 03:58:24;;;;;;;8.43;1.20;;;;;;;;;;4363191;32;20189;-83
2020/12/01 04:00:50;;;;;;;12.82;1.90;;;;;;;;;;4363181;32;20162;-83
2020/12/01 04:03:15;;;;;;;11.20;1.70;;;;;;;;;;4363154;32;20557;-83
2020/12/01 04:05:40;;;;;;;16.30;2.00;;;;;;;;;;4363794;32;20201;-83
2020/12/01 04:08:09;;;;;;;22.87;2.30;;;;;;;;;;4377257;32;20196;-83
2020/12/01 04:10:34;;;;;;;17.83;2.65;;;;;;;;;;4363289;32;20648;-82
2020/12/01 04:12:59;;;;;;;18.35;2.97;;;;;;;;;;4363552;32;20159;-83
2020/12/01 04:15:25;;;;;;;23.70;2.90;;;;;;;;;;4377153;32;20209;-84
2020/12/01 04:17:51;;;;;;;16.17;3.12;;;;;;;;;;4365044;32;20233;-83
2020/12/01 04:20:16;;;;;;;17.25;2.40;;;;;;;;;;4365948;32;20504;-83
2020/12/01 04:22:43;;;;;;;18.73;2.65;;;;;;;;;;4363578;32;20225;-84
2020/12/01 04:25:11;;;;;;;24.58;3.08;;;;;;;;;;4376524;32;20147;-84
2020/12/01 04:27:37;;;;;;;24.12;3.50;;;;;;;;;;4363338;32;20158;-83
2020/12/01 04:30:03;;;;;;;23.55;3.35;;;;;;;;;;4363289;32;20154;-84
2020/12/01 04:32:29;;;;;;;21.77;3.20;;;;;;;;;;4362520;32;20634;-84
2020/12/01 04:34:54;;;;;;;20.73;2.72;;;;;;;;;;4363206;32;20179;-83
2020/12/01 04:37:19;;;;;;;17.67;2.55;;;;;;;;;;4376638;32;20181;-83
2020/12/01 04:39:44;;;;;;;22.48;3.30;;;;;;;;;;4376872;32;20135;-83
2020/12/01 04:42:14;;;;;;;17.67;2.62;;;;;;;;;;4362835;32;20174;-83
2020/12/01 04:45:06;;;;;;;25.25;3.65;;;;;;;;;;4362822;32;20167;-83
2020/12/01 04:47:33;;;;;;;18.87;2.35;;;;;;;;;;4360417;32;20661;-84
2020/12/01 04:50:02;;;;;;;21.07;2.93;;;;;;;;;;4363293;32;20171;-84
2020/12/01 04:52:38;;;;;;;14.18;2.28;;;;;;;;;;4362740;32;20623;-84
2020/12/01 04:55:12;;;;;;;11.52;2.15;;;;;;;;;;4376602;32;20142;-85
2020/12/01 04:57:37;;;;;;;19.02;2.80;;;;;;;;;;4362481;32;20189;-84
2020/12/01 05:00:03;;;;;;;20.95;2.92;;;;;;;;;;4376394;32;20179;-85
2020/12/01 05:02:42;;;;;;;16.55;2.80;;;;;;;;;;4362667;32;20487;-86
2020/12/01 05:05:10;;;;;;;20.88;3.20;;;;;;;;;;4362041;32;20236;-86
2020/12/01 05:07:53;;;;;;;20.70;2.90;;;;;;;;;;4362061;32;20166;-85
2020/12/01 05:10:19;;;;;;;16.70;2.53;;;;;;;;;;4362276;32;20201;-84
2020/12/01 05:12:53;;;;;;;26.27;3.10;;;;;;;;;;4362119;32;20254;-84
2020/12/01 05:15:21;;;;;;;19.50;2.85;;;;;;;;;;4362215;32;20167;-84
2020/12/01 05:17:53;;;;;;;17.70;2.75;;;;;;;;;;4362252;32;20167;-84
2020/12/01 05:20:18;;;;;;;16.37;2.50;;;;;;;;;;4362806;32;20178;-83
2020/12/01 05:22:48;;;;;;;21.55;2.92;;;;;;;;;;4361869;32;20178;-82
2020/12/01 05:25:28;;;;;;;17.62;2.50;;;;;;;;;;4362275;32;20198;-83
2020/12/01 05:28:03;;;;;;;16.52;2.58;;;;;;;;;;4362235;32;20188;-84
2020/12/01 05:30:28;;;;;;;19.17;2.45;;;;;;;;;;4362093;32;20161;-84
2020/12/01 05:33:06;;;;;;;21.30;2.60;;;;;;;;;;4362071;32;20253;-84
2020/12/01 05:35:32;;;;;;;15.73;2.78;;;;;;;;;;4362022;32;20665;-83
2020/12/01 05:38:13;;;;;;;21.02;2.65;;;;;;;;;;4361708;32;20166;-84
2020/12/01 05:40:46;;;;;;;20.42;2.92;;;;;;;;;;4361661;32;20710;-83
2020/12/01 05:43:21;;;;;;;18.15;2.83;;;;;;;;;;4363160;32;20167;-84
2020/12/01 05:45:46;;;;;;;16.75;2.35;;;;;;;;;;4362063;32;20208;-82
2020/12/01 05:48:44;;;;;;;24.92;2.65;;;;;;;;;;4375587;32;20459;-83
2020/12/01 05:51:12;;;;;;;15.00;2.50;;;;;;;;;;4333715;32;20185;-83
2020/12/01 05:53:37;;;;;;;14.07;2.60;;;;;;;;;;4361933;32;20257;-84
2020/12/01 05:56:06;;;;;;;22.80;2.75;;;;;;;;;;4362147;32;20158;-82
2020/12/01 05:58:39;;;;;;;17.17;2.50;;;;;;;;;;4362001;32;20162;-84
2020/12/01 06:01:04;;;;;;;16.98;3.20;;;;;;;;;;4369919;32;20230;-83
2020/12/01 06:03:35;;;;;;;15.90;2.47;;;;;;;;;;4360895;32;20159;-84
2020/12/01 06:06:01;;;;;;;20.08;3.12;;;;;;;;;;4348373;32;20302;-84
2020/12/01 06:08:38;;;;;;;18.12;3.35;;;;;;;;;;4369731;32;20166;-83
2020/12/01 06:11:08;;;;;;;17.40;3.57;;;;;;;;;;4346348;33;20196;-82
2020/12/01 06:13:44;;;;;;;24.25;3.35;;;;;;;;;;4346746;33;20187;-84
2020/12/01 06:16:21;;;;;;;15.18;2.85;;;;;;;;;;4360508;32;20197;-83
2020/12/01 06:18:56;;;;;;;25.20;3.10;;;;;;;;;;4368333;32;20191;-82
2020/12/01 06:21:40;;;;;;;16.77;2.90;;;;;;;;;;4361247;32;20162;-83
2020/12/01 06:24:11;;;;;;;20.52;3.55;;;;;;;;;;4360773;32;20167;-83
2020/12/01 06:26:46;;;;;;;19.80;3.20;;;;;;;;;;4374493;32;20305;-80
2020/12/01 06:29:20;;;;;;;30.95;4.70;;;;;;;;;;4360480;32;20162;-84
2020/12/01 06:31:48;;;;;;;22.90;3.35;;;;;;;;;;4360943;32;20224;-82
2020/12/01 06:34:23;;;;;;;21.62;4.12;;;;;;;;;;4374576;32;20157;-83
2020/12/01 06:36:51;;;;;;;27.08;3.80;;;;;;;;;;4357375;32;20174;-83
2020/12/01 06:39:16;;;;;;;25.73;3.50;;;;;;;;;;4373477;32;20597;-84
2020/12/01 06:41:44;;;;;;;22.40;3.92;;;;;;;;;;4373516;32;20564;-83
2020/12/01 06:44:12;;;;;;;23.10;3.30;;;;;;;;;;4360682;32;20294;-84
2020/12/01 06:46:41;;;;;;;21.92;2.75;;;;;;;;;;4375866;32;20275;-83
2020/12/01 06:49:08;;;;;;;15.90;2.70;;;;;;;;;;4363717;32;20564;-82
2020/12/01 06:51:33;;;;;;;21.27;3.35;;;;;;;;;;4377194;32;20135;-83
2020/12/01 06:54:07;;;;;;;22.67;3.40;;;;;;;;;;4363726;32;20159;-83
2020/12/01 06:56:32;;;;;;;15.75;3.15;;;;;;;;;;4377161;32;20142;-85
2020/12/01 06:59:04;;;;;;;16.83;2.83;;;;;;;;;;4377402;32;20224;-82
2020/12/01 07:01:30;;;;;;;21.95;2.53;;;;;;;;;;4363771;32;20181;-83
2020/12/01 07:04:05;;;;;;;24.53;3.07;;;;;;;;;;4377367;32;20132;-81
2020/12/01 07:06:30;;;;;;;18.12;3.00;;;;;;;;;;4363257;32;20181;-83
2020/12/01 07:09:05;;;;;;;9.95;1.95;;;;;;;;;;4377467;32;20135;-83
2020/12/01 07:11:32;;;;;;;26.55;3.25;;;;;;;;;;4377602;32;20127;-82
2020/12/01 07:14:02;;;;;;;16.07;2.90;;;;;;;;;;4378102;32;20175;-80
2020/12/01 07:16:30;;;;;;;22.53;3.57;;;;;;;;;;4378470;32;20162;-82
2020/12/01 07:19:13;;;;;;;24.87;3.30;;;;;;;;;;4378797;32;20147;-82
2020/12/01 07:21:46;;;;;;;28.17;3.67;;;;;;;;;;4367652;32;20200;-81
2020/12/01 07:24:11;;;;;;;22.30;3.60;;;;;;;;;;4366694;32;20223;-80
2020/12/01 07:26:41;;;;;;;25.30;3.65;;;;;;;;;;4377663;32;20624;-83
2020/12/01 07:29:06;;;;;;;19.67;3.35;;;;;;;;;;4364155;32;20213;-83
2020/12/01 07:31:33;;;;;;;24.83;3.10;;;;;;;;;;4377619;32;20134;-81
2020/12/01 07:34:01;;;;;;;18.67;2.87;;;;;;;;;;4376153;32;20507;-82
2020/12/01 07:36:32;;;;;;;20.03;3.23;;;;;;;;;;4377169;32;20130;-83
2020/12/01 07:39:16;;;;;;;20.80;3.10;;;;;;;;;;4376517;32;20147;-80
2020/12/01 07:41:46;;;;;;;21.92;3.28;;;;;;;;;;4363514;32;20576;-81
2020/12/01 07:44:14;;;;;;;23.98;2.83;;;;;;;;;;4377065;32;20817;-84
2020/12/01 07:49:18;;;;;;;27.23;3.45;;;;;;;;;;4376508;32;20147;-82
2020/12/01 07:51:44;;;;;;;30.08;4.03;;;;;;;;;;4363243;32;20159;-82
2020/12/01 07:54:10;;;;;;;19.25;3.03;;;;;;;;;;4363032;32;20228;-82
2020/12/01 07:56:38;;;;;;;22.15;3.62;;;;;;;;;;4362643;32;20226;-84
2020/12/01 07:59:12;;;;;;;26.02;4.00;;;;;;;;;;4362065;32;20590;-84
2020/12/01 08:01:51;;;;;;;26.33;3.62;;;;;;;;;;4377114;32;20184;-82
2020/12/01 08:04:22;;;;;;;22.92;3.37;;;;;;;;;;4382718;32;20151;-84
2020/12/01 08:06:57;;;;;;;28.12;3.83;;;;;;;;;;4353245;32;20190;-83
2020/12/01 08:09:24;;;;;;;23.02;3.37;;;;;;;;;;4373975;32;20146;-82
2020/12/01 08:11:52;;;;;;;28.17;4.18;;;;;;;;;;4376118;32;20201;-83
2020/12/01 08:14:17;;;;;;;23.45;3.90;;;;;;;;;;4376018;32;20171;-82
2020/12/01 08:16:43;;;;;;;23.50;3.78;;;;;;;;;;4379446;32;20185;-84
2020/12/01 08:19:12;;;;;;;25.60;3.42;;;;;;;;;;4377711;32;20155;-84
2020/12/01 08:21:43;;;;;;;27.77;4.57;;;;;;;;;;4387445;32;20159;-82
2020/12/01 08:24:19;;;;;;;25.80;4.03;;;;;;;;;;4363109;32;20199;-82
2020/12/01 08:26:46;;;;;;;29.55;3.60;;;;;;;;;;4378054;32;20156;-84
2020/12/01 08:29:11;;;;;;;28.40;3.57;;;;;;;;;;4380403;32;20177;-82
2020/12/01 08:31:53;;;;;;;21.73;3.33;;;;;;;;;;4377823;32;20198;-83
2020/12/01 08:34:49;;;;;;;24.05;3.55;;;;;;;;;;4391784;32;20226;-82
2020/12/01 08:37:29;;;;;;;29.60;3.47;;;;;;;;;;4376185;32;20209;-84
2020/12/01 08:40:13;;;;;;;21.02;3.70;;;;;;;;;;4378135;32;20591;-83
2020/12/01 08:42:42;;;;;;;27.75;4.10;;;;;;;;;;4378101;32;20162;-84
2020/12/01 08:45:15;;;;;;;15.43;2.90;;;;;;;;;;4365325;32;20210;-86
2020/12/01 08:47:41;;;;;;;20.00;3.10;;;;;;;;;;4377754;32;20221;-83
2020/12/01 08:50:19;;;;;;;17.05;2.92;;;;;;;;;;4363066;32;20185;-84
2020/12/01 08:52:46;;;;;;;21.17;2.87;;;;;;;;;;4363664;32;20166;-83
2020/12/01 08:55:29;;;;;;;24.20;3.70;;;;;;;;;;4392711;32;20532;-83
2020/12/01 08:58:10;;;;;;;19.52;2.87;;;;;;;;;;4373908;32;20145;-82
2020/12/01 09:01:06;;;;;;;19.52;2.95;;;;;;;;;;4385194;32;20221;-82
2020/12/01 09:03:34;;;;;;;21.83;3.37;;;;;;;;;;4375775;32;20154;-83
2020/12/01 09:06:00;;;;;;;14.60;2.62;;;;;;;;;;4375997;32;20139;-84
2020/12/01 09:08:42;;;;;;;19.12;3.03;;;;;;;;;;4364693;32;20166;-82
2020/12/01 09:13:58;;;;;;;17.23;2.78;;;;;;;;;;4391197;32;20616;-83
2020/12/01 09:19:40;;;;;;;19.58;2.87;;;;;;;;;;4376324;32;20177;-82
2020/12/01 09:22:11;;;;;;;15.50;2.45;;;;;;;;;;4375405;32;20201;-84
2020/12/01 09:24:37;;;;;;;15.05;2.42;;;;;;;;;;4372430;32;20181;-82
2020/12/01 09:27:04;;;;;;;16.60;2.67;;;;;;;;;;4376481;32;20553;-84
2020/12/01 09:29:33;;;;;;;18.55;2.87;;;;;;;;;;4367031;32;20165;-82
2020/12/01 09:31:59;;;;;;;16.85;2.80;;;;;;;;;;4376385;32;20579;-83
2020/12/01 09:34:28;;;;;;;15.82;2.85;;;;;;;;;;4376337;32;20154;-82
2020/12/01 09:37:04;;;;;;;16.90;3.03;;;;;;;;;;4363168;32;20164;-83
2020/12/01 09:39:30;;;;;;;19.60;3.17;;;;;;;;;;4370769;32;20219;-82
2020/12/01 09:42:01;;;;;;;15.18;3.47;;;;;;;;;;4361974;32;20167;-83
2020/12/01 09:46:59;;;;;;;16.65;3.37;;;;;;;;;;4374762;32;20177;-83
2020/12/01 09:49:27;;;;;;;17.73;2.78;;;;;;;;;;4361981;32;20154;-82
2020/12/01 09:52:07;;;;;;;16.05;2.87;;;;;;;;;;4363618;32;20580;-82
2020/12/01 09:57:13;;;;;;;17.52;2.80;;;;;;;;;;4384506;32;20143;-83
2020/12/01 10:08:18;;;;;;;20.30;2.67;;;;;;;;;;4374746;32;20199;-83
2020/12/01 10:13:28;;;;;;;16.27;2.70;;;;;;;;;;4377792;32;20240;-83
2020/12/01 10:27:03;;;;;;;16.95;3.17;;;;;;;;;;4364984;32;20200;-80
2020/12/01 10:31:04;;;;;;;16.87;2.53;;;;;;;;;;4362453;32;20192;-83
2020/12/01 10:37:34;;;;;;;16.77;2.90;;;;;;;;;;4374446;32;20143;-82
2020/12/01 10:39:59;;;;;;;27.25;3.33;;;;;;;;;;4361971;32;20182;-82
2020/12/01 10:42:25;;;;;;;22.15;3.40;;;;;;;;;;4373065;32;20196;-83
2020/12/01 10:44:50;;;;;;;14.15;2.58;;;;;;;;;;4374988;32;20162;-82
2020/12/01 10:47:23;;;;;;;18.42;2.58;;;;;;;;;;4375353;32;20189;-81
2020/12/01 10:49:48;;;;;;;20.00;2.83;;;;;;;;;;4376511;32;20173;-82
2020/12/01 10:52:14;;;;;;;15.38;3.20;;;;;;;;;;4361032;32;20306;-81
2020/12/01 10:54:39;;;;;;;19.12;2.83;;;;;;;;;;4376995;32;20173;-81
2020/12/01 10:57:04;;;;;;;19.17;3.03;;;;;;;;;;4373417;32;20151;-83
2020/12/01 10:59:30;;;;;;;18.90;3.08;;;;;;;;;;4381636;32;20523;-82
2020/12/01 11:01:55;;;;;;;21.95;3.25;;;;;;;;;;4373380;32;20186;-80
2020/12/01 11:04:24;;;;;;;22.75;2.87;;;;;;;;;;4361065;32;20162;-82
2020/12/01 11:06:58;;;;;;;15.75;2.72;;;;;;;;;;4376511;32;20151;-82
2020/12/01 11:09:24;;;;;;;13.60;2.40;;;;;;;;;;4374803;32;20178;-83
2020/12/01 11:11:49;;;;;;;16.85;2.70;;;;;;;;;;4378967;32;20200;-82
2020/12/01 11:14:16;;;;;;;13.95;2.40;;;;;;;;;;4373998;32;20138;-82
2020/12/01 11:16:41;;;;;;;13.90;2.62;;;;;;;;;;4376195;32;20638;-81
2020/12/01 11:19:06;;;;;;;17.77;3.35;;;;;;;;;;4376768;32;20139;-81
2020/12/01 11:21:35;;;;;;;17.65;3.50;;;;;;;;;;4367105;32;20209;-81
2020/12/01 11:24:00;;;;;;;16.42;2.65;;;;;;;;;;4374085;32;20155;-81
2020/12/01 11:26:29;;;;;;;18.23;3.17;;;;;;;;;;4374717;32;20188;-82
2020/12/01 11:28:54;;;;;;;21.40;2.60;;;;;;;;;;4365212;32;20171;-83
2020/12/01 11:31:20;;;;;;;21.92;3.03;;;;;;;;;;4374950;32;20458;-82
2020/12/01 11:33:56;;;;;;;22.27;2.75;;;;;;;;;;4362614;32;20217;-82
2020/12/01 11:36:22;;;;;;;17.05;2.47;;;;;;;;;;4363180;32;20155;-84
2020/12/01 11:38:50;;;;;;;17.85;2.85;;;;;;;;;;4380544;32;20243;-82
2020/12/01 11:41:16;;;;;;;20.90;3.00;;;;;;;;;;4366029;32;20192;-82
2020/12/01 11:43:41;;;;;;;17.95;2.80;;;;;;;;;;4387671;32;20151;-83
2020/12/01 11:46:06;;;;;;;14.25;2.83;;;;;;;;;;4362529;32;20635;-82
2020/12/01 11:48:32;;;;;;;15.35;2.67;;;;;;;;;;4374088;32;20158;-83
2020/12/01 11:50:57;;;;;;;13.90;2.87;;;;;;;;;;4378232;32;20244;-82
2020/12/01 11:53:22;;;;;;;18.37;2.53;;;;;;;;;;4379838;32;20146;-79
2020/12/01 11:55:48;;;;;;;16.35;2.80;;;;;;;;;;4367623;32;20907;-81
2020/12/01 11:58:13;;;;;;;13.15;2.53;;;;;;;;;;4374079;32;21650;-80
2020/12/01 12:00:38;;;;;;;14.57;2.60;;;;;;;;;;4391321;32;20460;-84
2020/12/01 12:03:03;;;;;;;19.73;3.10;;;;;;;;;;4377924;32;20605;-82
2020/12/01 12:05:29;;;;;;;14.63;2.53;;;;;;;;;;4391405;32;20158;-84
2020/12/01 12:07:56;;;;;;;16.17;2.58;;;;;;;;;;4380936;32;20487;-83
2020/12/01 12:10:22;;;;;;;15.55;2.65;;;;;;;;;;4365839;32;20189;-83
2020/12/01 12:12:48;;;;;;;18.60;3.35;;;;;;;;;;4368450;32;20171;-83
2020/12/01 12:15:13;;;;;;;21.37;2.80;;;;;;;;;;4382113;32;20177;-82
2020/12/01 12:17:39;;;;;;;15.30;2.12;;;;;;;;;;4363102;32;20167;-82
2020/12/01 12:20:04;;;;;;;17.92;2.28;;;;;;;;;;4382783;32;20524;-83
2020/12/01 12:22:29;;;;;;;15.50;2.17;;;;;;;;;;4388423;32;20634;-83
2020/12/01 12:24:55;;;;;;;14.50;2.65;;;;;;;;;;4376624;32;20482;-83
2020/12/01 12:27:20;;;;;;;13.18;2.85;;;;;;;;;;4369581;32;20484;-82
2020/12/01 12:29:45;;;;;;;15.32;2.53;;;;;;;;;;4367292;32;20213;-81
2020/12/01 12:32:10;;;;;;;17.83;2.37;;;;;;;;;;4365830;32;20178;-81
2020/12/01 12:34:35;;;;;;;16.87;3.25;;;;;;;;;;4384974;32;20173;-83
2020/12/01 12:37:01;;;;;;;16.90;2.77;;;;;;;;;;4388685;32;20196;-81
2020/12/01 12:39:26;;;;;;;15.82;2.50;;;;;;;;;;4378338;32;20688;-81
2020/12/01 12:41:51;;;;;;;16.50;2.90;;;;;;;;;;4378206;32;20594;-82
2020/12/01 12:44:17;;;;;;;17.27;2.78;;;;;;;;;;4373319;32;20190;-82
2020/12/01 12:46:42;;;;;;;17.37;3.15;;;;;;;;;;4380545;32;20560;-80
2020/12/01 12:49:07;;;;;;;17.80;2.83;;;;;;;;;;4377603;32;20611;-80
2020/12/01 12:51:33;;;;;;;15.13;2.65;;;;;;;;;;4380884;32;20174;-83
2020/12/01 12:53:58;;;;;;;16.02;2.53;;;;;;;;;;4376344;32;20200;-82
2020/12/01 12:56:24;;;;;;;12.50;2.20;;;;;;;;;;4383120;32;20576;-83
2020/12/01 12:58:51;;;;;;;13.62;2.90;;;;;;;;;;4375578;32;20169;-79
2020/12/01 13:01:17;;;;;;;15.05;2.45;;;;;;;;;;4382420;32;20150;-79
2020/12/01 13:03:42;;;;;;;13.07;2.47;;;;;;;;;;4377188;32;20505;-81
2020/12/01 13:06:07;;;;;;;16.12;2.60;;;;;;;;;;4371263;32;20174;-82
2020/12/01 13:08:33;;;;;;;14.02;2.70;;;;;;;;;;4375170;32;20146;-80
2020/12/01 13:10:58;;;;;;;12.20;2.30;;;;;;;;;;4361512;32;20213;-81
2020/12/01 13:13:23;;;;;;;15.18;2.55;;;;;;;;;;4376201;32;20140;-82
2020/12/01 13:15:48;;;;;;;12.82;2.70;;;;;;;;;;4373675;32;20255;-83
2020/12/01 13:18:13;;;;;;;9.85;2.40;;;;;;;;;;4372591;32;20553;-83
2020/12/01 13:20:39;;;;;;;16.12;2.62;;;;;;;;;;4390112;32;20130;-82
2020/12/01 13:23:04;;;;;;;18.73;2.75;;;;;;;;;;4373364;32;20163;-82
2020/12/01 13:25:30;;;;;;;12.45;2.67;;;;;;;;;;4361102;32;20681;-83
2020/12/01 13:27:55;;;;;;;17.02;2.92;;;;;;;;;;4361543;32;20600;-82
2020/12/01 13:30:22;;;;;;;17.40;3.03;;;;;;;;;;4358380;32;20242;-82
2020/12/01 13:32:47;;;;;;;18.33;2.72;;;;;;;;;;4365634;32;20565;-81
2020/12/01 13:35:13;;;;;;;14.02;2.53;;;;;;;;;;4375704;32;20196;-82
2020/12/01 13:37:38;;;;;;;18.20;2.87;;;;;;;;;;4378771;32;20452;-83
2020/12/01 13:40:08;;;;;;;17.08;2.72;;;;;;;;;;4360558;32;20865;-81
2020/12/01 13:42:33;;;;;;;18.77;3.22;;;;;;;;;;4380841;32;20290;-82
2020/12/01 13:44:58;;;;;;;16.13;2.73;;;;;;;;;;4373066;32;20254;-80
2020/12/01 13:47:23;;;;;;;17.08;3.25;;;;;;;;;;4353749;32;20287;-81
2020/12/01 13:49:49;;;;;;;14.32;2.53;;;;;;;;;;4360455;32;20157;-79
2020/12/01 13:52:14;;;;;;;20.48;3.20;;;;;;;;;;4378457;32;20143;-81
2020/12/01 13:54:39;;;;;;;15.55;2.75;;;;;;;;;;4374273;32;20159;-81
2020/12/01 13:57:04;;;;;;;15.40;3.20;;;;;;;;;;4374187;32;20131;-81
2020/12/01 13:59:30;;;;;;;19.52;3.20;;;;;;;;;;4361001;32;20488;-81
2020/12/01 14:01:56;;;;;;;13.13;2.40;;;;;;;;;;4374556;32;20487;-82
2020/12/01 14:04:21;;;;;;;15.07;3.05;;;;;;;;;;4365408;32;20216;-82
2020/12/01 14:06:50;;;;;;;17.33;2.83;;;;;;;;;;4371875;32;20608;-81
2020/12/01 14:09:15;;;;;;;19.60;3.12;;;;;;;;;;4389890;32;20138;-82
2020/12/01 14:11:40;;;;;;;15.55;3.10;;;;;;;;;;4379821;32;20162;-81
2020/12/01 14:14:05;;;;;;;18.50;2.70;;;;;;;;;;4383080;32;20147;-81
2020/12/01 14:16:30;;;;;;;12.60;2.37;;;;;;;;;;4374146;32;20134;-80
2020/12/01 14:18:56;;;;;;;16.05;2.87;;;;;;;;;;4374573;32;20140;-81
2020/12/01 14:21:21;;;;;;;16.30;2.95;;;;;;;;;;4389473;32;20544;-80
2020/12/01 14:23:46;;;;;;;15.93;2.40;;;;;;;;;;4360225;32;20229;-80
2020/12/01 14:26:13;;;;;;;15.93;2.70;;;;;;;;;;4374234;32;20225;-81
2020/12/01 14:28:38;;;;;;;21.90;3.15;;;;;;;;;;4378570;32;20257;-82
2020/12/01 14:31:03;;;;;;;20.55;2.87;;;;;;;;;;4373744;32;20554;-81
2020/12/01 14:33:28;;;;;;;22.55;3.20;;;;;;;;;;4374005;32;20135;-82
2020/12/01 14:35:54;;;;;;;21.15;3.03;;;;;;;;;;4360220;32;20162;-82
2020/12/01 14:38:20;;;;;;;14.87;2.55;;;;;;;;;;4373936;32;20158;-80
2020/12/01 14:40:45;;;;;;;17.45;2.72;;;;;;;;;;4355463;32;20720;-79
2020/12/01 14:43:13;;;;;;;18.55;2.95;;;;;;;;;;4356976;32;20171;-80
2020/12/01 14:45:38;;;;;;;17.83;2.67;;;;;;;;;;4388485;32;20260;-81
2020/12/01 14:48:09;;;;;;;26.37;3.12;;;;;;;;;;4375296;32;20166;-79
2020/12/01 14:51:02;;;;;;;23.10;3.55;;;;;;;;;;4375251;32;20151;-81
2020/12/01 14:53:30;;;;;;;18.80;3.00;;;;;;;;;;4374549;32;20151;-82
2020/12/01 14:56:14;;;;;;;20.60;3.35;;;;;;;;;;4374500;32;20204;-81
2020/12/01 14:59:03;;;;;;;16.62;3.10;;;;;;;;;;4374132;32;20154;-81
2020/12/01 15:01:47;;;;;;;19.48;3.28;;;;;;;;;;4359825;32;20571;-81
2020/12/01 15:04:41;;;;;;;26.67;3.58;;;;;;;;;;4361444;32;20642;-80
2020/12/01 15:07:06;;;;;;;20.95;3.83;;;;;;;;;;4361711;32;20166;-79
2020/12/01 15:09:47;;;;;;;12.45;2.42;;;;;;;;;;4386506;32;20174;-81
2020/12/01 15:12:27;;;;;;;22.62;2.85;;;;;;;;;;4379069;32;20212;-80
2020/12/01 15:14:52;;;;;;;29.02;3.80;;;;;;;;;;4348922;33;20230;-80
2020/12/01 15:17:23;;;;;;;20.98;3.35;;;;;;;;;;4362205;32;20174;-81
2020/12/01 15:19:57;;;;;;;22.15;3.25;;;;;;;;;;4380020;32;20151;-81